createdAt,value
2018-11-06T00:02:59.493Z,99122.99
2018-11-06T00:06:02.470Z,99128.40
2018-11-06T00:09:07.502Z,99130.09
2018-11-06T00:12:10.342Z,99127.82
2018-11-06T00:15:13.306Z,99128.36
2018-11-06T00:18:16.235Z,99135.67
2018-11-06T00:21:19.188Z,99117.72
2018-11-06T00:24:22.074Z,99122.72
2018-11-06T00:27:25.092Z,99121.06
2018-11-06T00:30:28.021Z,99127.05
2018-11-06T00:33:30.953Z,99126.38
2018-11-06T00:36:33.889Z,99132.33
2018-11-06T00:39:36.833Z,99131.17
2018-11-06T00:42:39.836Z,99129.39
2018-11-06T00:45:42.787Z,99131.51
2018-11-06T00:48:45.780Z,99120.61
2018-11-06T00:51:48.674Z,99126.67
2018-11-06T00:54:51.588Z,99126.95
2018-11-06T00:57:54.509Z,99131.04
2018-11-06T01:00:57.425Z,99122.33
2018-11-06T01:04:06.037Z,99123.65
2018-11-06T01:07:08.980Z,99123.61
2018-11-06T01:10:12.042Z,99127.59
2018-11-06T01:13:14.950Z,99126.33
2018-11-06T01:16:17.916Z,99118.45
2018-11-06T01:19:20.853Z,99118.41
2018-11-06T01:22:24.128Z,99127.77
2018-11-06T01:25:27.029Z,99132.22
2018-11-06T01:28:29.953Z,99136.59
2018-11-06T01:31:32.858Z,99145.79
2018-11-06T01:34:35.797Z,99142.22
2018-11-06T01:37:38.784Z,99143.58
2018-11-06T01:40:41.720Z,99147.47
2018-11-06T01:43:44.637Z,99123.56
2018-11-06T01:46:48.017Z,99148.37
2018-11-06T01:49:50.949Z,99153.80
2018-11-06T01:52:53.861Z,99157.27
2018-11-06T01:55:56.762Z,99149.84
2018-11-06T01:58:59.684Z,99140.34
2018-11-06T02:02:02.609Z,99143.81
2018-11-06T02:05:07.220Z,99146.14
2018-11-06T02:08:10.118Z,99144.41
2018-11-06T02:11:13.079Z,99146.67
2018-11-06T02:14:16.002Z,99143.16
2018-11-06T02:17:18.929Z,99145.27
2018-11-06T02:20:21.830Z,99150.23
2018-11-06T02:23:24.730Z,99150.73
2018-11-06T02:26:27.638Z,99140.72
2018-11-06T02:29:30.651Z,99136.91
2018-11-06T02:32:33.734Z,99128.69
2018-11-06T02:35:36.596Z,99127.25
2018-11-06T02:38:39.516Z,99133.40
2018-11-06T02:41:42.459Z,99134.41
2018-11-06T02:44:46.237Z,99138.19
2018-11-06T02:47:49.132Z,99145.23
2018-11-06T02:50:52.101Z,99138.94
2018-11-06T02:53:54.982Z,99140.11
2018-11-06T02:56:57.914Z,99137.02
2018-11-06T03:00:00.836Z,99136.18
2018-11-06T03:03:03.877Z,99134.17
2018-11-06T03:06:06.946Z,99143.97
2018-11-06T03:09:09.909Z,99139.56
2018-11-06T03:12:12.866Z,99134.70
2018-11-06T03:15:15.873Z,99133.59
2018-11-06T03:18:18.782Z,99134.63
2018-11-06T03:21:21.705Z,99137.16
2018-11-06T03:24:24.694Z,99132.28
2018-11-06T03:27:27.617Z,99137.52
2018-11-06T03:30:30.788Z,99129.30
2018-11-06T03:33:33.751Z,99128.33
2018-11-06T03:36:36.673Z,99128.70
2018-11-06T03:39:39.639Z,99129.56
2018-11-06T03:42:42.994Z,99126.45
2018-11-06T03:45:45.897Z,99135.23
2018-11-06T03:48:48.813Z,99132.77
2018-11-06T03:51:51.727Z,99136.83
2018-11-06T03:54:54.665Z,99144.81
2018-11-06T03:57:57.599Z,99149.08
2018-11-06T04:01:00.509Z,99135.02
2018-11-06T04:04:03.583Z,99140.13
2018-11-06T04:07:06.578Z,99143.45
2018-11-06T04:10:10.339Z,99135.36
2018-11-06T04:13:13.265Z,99137.13
2018-11-06T04:16:16.197Z,99139.41
2018-11-06T04:19:19.100Z,99140.09
2018-11-06T04:22:22.006Z,99130.84
2018-11-06T04:25:24.896Z,99133.52
2018-11-06T04:28:27.820Z,99125.41
2018-11-06T04:31:30.734Z,99112.41
2018-11-06T04:34:33.618Z,99119.57
2018-11-06T04:37:36.897Z,99116.11
2018-11-06T04:40:39.826Z,99125.34
2018-11-06T04:43:42.736Z,99128.53
2018-11-06T04:46:45.668Z,99142.22
2018-11-06T04:49:48.639Z,99147.11
2018-11-06T04:52:51.636Z,99144.63
2018-11-06T04:55:54.526Z,99149.50
2018-11-06T04:58:57.554Z,99152.74
2018-11-06T05:02:00.589Z,99151.31
2018-11-06T05:05:03.589Z,99145.96
2018-11-06T05:08:06.545Z,99145.50
2018-11-06T05:11:09.502Z,99140.80
2018-11-06T05:14:12.538Z,99145.05
2018-11-06T05:17:15.390Z,99134.91
2018-11-06T05:20:18.325Z,99135.32
2018-11-06T05:23:21.255Z,99126.02
2018-11-06T05:26:24.193Z,99127.25
2018-11-06T05:29:27.165Z,99124.53
2018-11-06T05:32:30.070Z,99131.09
2018-11-06T05:35:33.041Z,99139.47
2018-11-06T05:38:35.986Z,99129.93
2018-11-06T05:41:38.940Z,99135.97
2018-11-06T05:44:41.853Z,99133.33
2018-11-06T05:47:44.804Z,99140.11
2018-11-06T05:50:47.793Z,99150.11
2018-11-06T05:53:50.701Z,99156.85
2018-11-06T05:56:53.605Z,99161.68
2018-11-06T05:59:56.534Z,99166.20
2018-11-06T06:02:59.501Z,99167.19
2018-11-06T06:06:02.427Z,99165.30
2018-11-06T06:09:06.938Z,99171.14
2018-11-06T06:12:09.832Z,99162.70
2018-11-06T06:15:12.796Z,99158.62
2018-11-06T06:18:16.339Z,99157.53
2018-11-06T06:21:19.275Z,99150.26
2018-11-06T06:24:22.256Z,99147.02
2018-11-06T06:27:25.306Z,99156.44
2018-11-06T06:30:28.209Z,99155.13
2018-11-06T06:33:31.154Z,99161.68
2018-11-06T06:36:34.123Z,99158.28
2018-11-06T06:39:37.125Z,99155.39
2018-11-06T06:42:40.377Z,99152.52
2018-11-06T06:45:43.339Z,99163.86
2018-11-06T06:48:46.389Z,99163.83
2018-11-06T06:51:49.338Z,99157.30
2018-11-06T06:54:52.252Z,99162.89
2018-11-06T06:57:55.185Z,99163.72
2018-11-06T07:00:58.149Z,99165.34
2018-11-06T07:04:01.084Z,99168.95
2018-11-06T07:07:04.181Z,99174.73
2018-11-06T07:10:09.521Z,99178.95
2018-11-06T07:13:12.543Z,99185.36
2018-11-06T07:16:15.467Z,99192.00
2018-11-06T07:19:18.341Z,99196.52
2018-11-06T07:22:21.231Z,99204.41
2018-11-06T07:25:24.171Z,99196.83
2018-11-06T07:28:27.055Z,99199.77
2018-11-06T07:31:29.977Z,99197.23
2018-11-06T07:34:32.893Z,99199.77
2018-11-06T07:37:36.225Z,99207.11
2018-11-06T07:40:39.227Z,99213.75
2018-11-06T07:43:42.086Z,99223.64
2018-11-06T07:46:45.069Z,99224.84
2018-11-06T07:49:48.076Z,99225.45
2018-11-06T07:52:50.967Z,99229.45
2018-11-06T07:55:53.992Z,99224.20
2018-11-06T07:58:56.884Z,99232.80
2018-11-06T08:01:59.839Z,99236.78
2018-11-06T08:05:02.780Z,99237.82
2018-11-06T08:08:05.765Z,99233.48
2018-11-06T08:11:08.705Z,99237.06
2018-11-06T08:14:11.675Z,99243.11
2018-11-06T08:17:14.637Z,99250.12
2018-11-06T08:20:17.597Z,99254.84
2018-11-06T08:23:20.506Z,99257.89
2018-11-06T08:26:23.472Z,99250.27
2018-11-06T08:29:27.139Z,99256.59
2018-11-06T08:32:30.385Z,99258.79
2018-11-06T08:35:33.009Z,99258.17
2018-11-06T08:38:36.014Z,99253.34
2018-11-06T08:41:39.146Z,99251.95
2018-11-06T08:44:42.037Z,99248.31
2018-11-06T08:47:45.481Z,99244.65
2018-11-06T08:50:48.427Z,99241.69
2018-11-06T08:53:51.408Z,99246.77
2018-11-06T08:56:54.341Z,99244.74
2018-11-06T08:59:57.311Z,99246.68
2018-11-06T09:03:00.201Z,99242.76
2018-11-06T09:06:03.142Z,99240.03
2018-11-06T09:09:07.728Z,99241.02
2018-11-06T09:12:10.669Z,99241.02
2018-11-06T09:15:14.624Z,99241.35
2018-11-06T09:18:17.697Z,99238.63
2018-11-06T09:21:20.620Z,99228.39
2018-11-06T09:24:23.593Z,99229.63
2018-11-06T09:27:26.537Z,99228.92
2018-11-06T09:30:29.497Z,99230.58
2018-11-06T09:33:32.497Z,99236.89
2018-11-06T09:36:35.445Z,99235.41
2018-11-06T09:39:38.346Z,99233.45
2018-11-06T09:42:41.289Z,99224.20
2018-11-06T09:45:44.234Z,99220.30
2018-11-06T09:48:47.183Z,99221.67
2018-11-06T09:51:50.156Z,99212.24
2018-11-06T09:54:53.099Z,99215.70
2018-11-06T09:57:56.049Z,99212.10
2018-11-06T10:00:58.947Z,99208.14
2018-11-06T10:04:01.944Z,99211.75
2018-11-06T10:07:05.913Z,99219.80
2018-11-06T10:10:11.416Z,99219.70
2018-11-06T10:13:14.381Z,99219.89
2018-11-06T10:16:17.329Z,99218.31
2018-11-06T10:19:20.296Z,99212.00
2018-11-06T10:22:23.225Z,99208.67
2018-11-06T10:25:26.189Z,99210.27
2018-11-06T10:28:29.120Z,99212.92
2018-11-06T10:31:32.513Z,99212.51
2018-11-06T10:34:35.501Z,99210.27
2018-11-06T10:37:38.508Z,99208.63
2018-11-06T10:40:41.449Z,99205.01
2018-11-06T10:43:44.486Z,99198.88
2018-11-06T10:46:47.396Z,99198.85
2018-11-06T10:49:50.338Z,99183.31
2018-11-06T10:52:53.325Z,99181.98
2018-11-06T10:55:56.274Z,99180.59
2018-11-06T10:58:59.208Z,99169.99
2018-11-06T11:02:07.712Z,99166.23
2018-11-06T11:05:10.640Z,99174.77
2018-11-06T11:08:13.596Z,99179.11
2018-11-06T11:11:16.505Z,99171.92
2018-11-06T11:14:19.418Z,99169.94
2018-11-06T11:17:22.323Z,99166.77
2018-11-06T11:20:25.297Z,99164.63
2018-11-06T11:23:28.202Z,99154.64
2018-11-06T11:26:31.137Z,99159.42
2018-11-06T11:29:34.189Z,99152.25
2018-11-06T11:32:37.173Z,99147.14
2018-11-06T11:35:40.149Z,99146.76
2018-11-06T11:38:43.093Z,99149.55
2018-11-06T11:41:45.974Z,99138.58
2018-11-06T11:44:48.872Z,99133.15
2018-11-06T11:47:51.798Z,99123.00
2018-11-06T11:50:54.754Z,99128.50
2018-11-06T11:53:57.681Z,99125.55
2018-11-06T11:57:00.601Z,99128.86
2018-11-06T12:00:04.290Z,99131.02
2018-11-06T12:03:07.656Z,99126.69
2018-11-06T12:06:10.639Z,99128.08
2018-11-06T12:09:13.533Z,99130.65
2018-11-06T12:12:16.477Z,99126.34
2018-11-06T12:15:19.392Z,99121.73
2018-11-06T12:18:22.390Z,99112.95
2018-11-06T12:21:25.268Z,99114.42
2018-11-06T12:24:28.308Z,99106.24
2018-11-06T12:27:31.175Z,99110.06
2018-11-06T12:30:34.144Z,99106.21
2018-11-06T12:33:37.093Z,99105.02
2018-11-06T12:36:40.246Z,99099.34
2018-11-06T12:39:43.064Z,99097.47
2018-11-06T12:42:46.016Z,99091.23
2018-11-06T12:45:48.946Z,99087.28
2018-11-06T12:48:51.886Z,99084.95
2018-11-06T12:51:54.786Z,99088.47
2018-11-06T12:54:57.748Z,99090.67
2018-11-06T12:58:00.716Z,99089.05
2018-11-06T13:01:03.612Z,99081.30
2018-11-06T13:04:06.590Z,99085.34
2018-11-06T13:07:09.538Z,99077.05
2018-11-06T13:10:13.345Z,99080.75
2018-11-06T13:13:16.284Z,99079.73
2018-11-06T13:16:19.269Z,99072.00
2018-11-06T13:19:22.261Z,99077.58
2018-11-06T13:22:25.276Z,99076.76
2018-11-06T13:25:28.299Z,99074.18
2018-11-06T13:28:32.122Z,99076.16
2018-11-06T13:31:35.364Z,99072.66
2018-11-06T13:34:38.536Z,99068.23
2018-11-06T13:37:41.960Z,99061.74
2018-11-06T13:40:45.198Z,99055.59
2018-11-06T13:43:48.440Z,99055.87
2018-11-06T13:46:51.208Z,99049.80
2018-11-06T13:49:54.544Z,99050.64
2018-11-06T13:52:57.496Z,99051.44
2018-11-06T13:56:00.441Z,99048.14
2018-11-06T13:59:03.909Z,99045.73
2018-11-06T14:02:07.055Z,99049.72
2018-11-06T14:05:10.452Z,99046.19
2018-11-06T14:08:13.913Z,99044.41
2018-11-06T14:11:17.363Z,99041.73
2018-11-06T14:14:20.533Z,99041.81
2018-11-06T14:17:23.874Z,99046.43
2018-11-06T14:20:26.982Z,99050.58
2018-11-06T14:23:29.913Z,99049.16
2018-11-06T14:26:32.790Z,99043.69
2018-11-06T14:29:35.674Z,99041.18
2018-11-06T14:32:38.849Z,99040.63
2018-11-06T14:35:41.913Z,99041.35
2018-11-06T14:38:44.839Z,99035.50
2018-11-06T14:41:47.745Z,99034.16
2018-11-06T14:44:50.722Z,99039.63
2018-11-06T14:47:53.697Z,99043.31
2018-11-06T14:50:56.721Z,99040.16
2018-11-06T14:53:59.672Z,99040.97
2018-11-06T14:57:02.719Z,99044.78
2018-11-06T15:00:08.588Z,99041.20
2018-11-06T15:03:11.513Z,99046.11
2018-11-06T15:06:14.488Z,99040.09
2018-11-06T15:09:17.408Z,99042.52
2018-11-06T15:12:20.361Z,99043.41
2018-11-06T15:15:23.409Z,99038.73
2018-11-06T15:18:26.359Z,99041.48
2018-11-06T15:21:29.280Z,99041.02
2018-11-06T15:24:32.404Z,99043.16
2018-11-06T15:27:35.332Z,99042.45
2018-11-06T15:30:38.362Z,99045.50
2018-11-06T15:33:41.302Z,99044.43
2018-11-06T15:36:44.245Z,99051.19
2018-11-06T15:39:47.203Z,99043.15
2018-11-06T15:42:50.133Z,99044.42
2018-11-06T15:45:53.062Z,99041.88
2018-11-06T15:48:56.039Z,99048.09
2018-11-06T15:51:58.945Z,99045.25
2018-11-06T15:55:01.928Z,99050.31
2018-11-06T15:58:04.861Z,99048.59
2018-11-06T16:01:07.901Z,99045.22
2018-11-06T16:04:10.781Z,99040.69
2018-11-06T16:07:13.689Z,99041.70
2018-11-06T16:10:17.827Z,99038.33
2018-11-06T16:13:20.770Z,99037.12
2018-11-06T16:16:23.721Z,99040.39
2018-11-06T16:19:26.674Z,99034.74
2018-11-06T16:22:30.232Z,99033.31
2018-11-06T16:25:33.548Z,99027.27
2018-11-06T16:28:36.671Z,99028.05
2018-11-06T16:31:39.886Z,99024.39
2018-11-06T16:34:42.883Z,99023.94
2018-11-06T16:37:46.404Z,99030.02
2018-11-06T16:40:49.540Z,99031.08
2018-11-06T16:43:52.696Z,99028.12
2018-11-06T16:46:55.778Z,99031.75
2018-11-06T16:49:58.874Z,99037.05
2018-11-06T16:53:02.230Z,99031.75
2018-11-06T16:56:06.062Z,99038.83
2018-11-06T16:59:09.065Z,99050.59
2018-11-06T17:02:12.095Z,99054.45
2018-11-06T17:05:15.449Z,99054.16
2018-11-06T17:08:18.406Z,99057.42
2018-11-06T17:11:21.441Z,99057.05
2018-11-06T17:14:24.463Z,99050.99
2018-11-06T17:17:27.952Z,99056.22
2018-11-06T17:20:30.906Z,99061.36
2018-11-06T17:23:34.449Z,99062.28
2018-11-06T17:26:37.986Z,99059.90
2018-11-06T17:29:41.350Z,99054.80
2018-11-06T17:32:44.511Z,99053.66
2018-11-06T17:35:47.414Z,99057.13
2018-11-06T17:38:50.454Z,99059.42
2018-11-06T17:41:53.467Z,99058.15
2018-11-06T17:44:56.512Z,99051.94
2018-11-06T17:47:59.444Z,99057.85
2018-11-06T17:51:02.461Z,99065.72
2018-11-06T17:54:05.913Z,99072.25
2018-11-06T17:57:08.965Z,99073.01
2018-11-06T18:00:15.421Z,99064.52
2018-11-06T18:03:18.376Z,99084.56
2018-11-06T18:06:21.271Z,99090.22
2018-11-06T18:09:24.186Z,99086.92
2018-11-06T18:12:27.157Z,99098.23
2018-11-06T18:15:30.109Z,99109.40
2018-11-06T18:18:33.047Z,99113.69
2018-11-06T18:21:35.981Z,99116.74
2018-11-06T18:24:38.930Z,99131.87
2018-11-06T18:27:41.870Z,99120.72
2018-11-06T18:30:44.789Z,99125.27
2018-11-06T18:33:47.646Z,99124.52
2018-11-06T18:36:51.312Z,99117.55
2018-11-06T18:39:54.252Z,99112.84
2018-11-06T18:42:57.174Z,99113.09
2018-11-06T18:46:00.192Z,99115.45
2018-11-06T18:49:03.299Z,99113.91
2018-11-06T18:52:06.354Z,99119.81
2018-11-06T18:55:09.313Z,99120.41
2018-11-06T18:58:12.447Z,99121.95
2018-11-06T19:01:15.257Z,99137.56
2018-11-06T19:04:18.679Z,99134.05
2018-11-06T19:07:21.602Z,99130.28
2018-11-06T19:10:24.718Z,99131.88
2018-11-06T19:13:28.012Z,99133.91
2018-11-06T19:16:30.905Z,99134.55
2018-11-06T19:19:33.998Z,99137.20
2018-11-06T19:22:37.292Z,99134.03
2018-11-06T19:25:40.568Z,99144.17
2018-11-06T19:28:43.757Z,99154.13
2018-11-06T19:31:47.709Z,99162.95
2018-11-06T19:34:50.814Z,99158.11
2018-11-06T19:37:54.229Z,99153.41
2018-11-06T19:40:57.277Z,99155.62
2018-11-06T19:44:00.405Z,99159.82
2018-11-06T19:47:03.581Z,99166.55
2018-11-06T19:50:09.216Z,99160.08
2018-11-06T19:53:12.300Z,99163.24
2018-11-06T19:56:15.585Z,99163.92
2018-11-06T19:59:18.746Z,99162.61
2018-11-06T20:02:22.299Z,99168.65
2018-11-06T20:05:25.545Z,99164.02
2018-11-06T20:08:28.652Z,99165.34
2018-11-06T20:11:31.585Z,99178.25
2018-11-06T20:14:34.753Z,99185.63
2018-11-06T20:17:38.319Z,99179.05
2018-11-06T20:20:41.499Z,99182.66
2018-11-06T20:23:44.484Z,99182.20
2018-11-06T20:26:47.441Z,99182.19
2018-11-06T20:29:50.532Z,99182.57
2018-11-06T20:32:54.114Z,99182.48
2018-11-06T20:35:57.366Z,99192.05
2018-11-06T20:39:00.356Z,99186.74
2018-11-06T20:42:03.752Z,99189.67
2018-11-06T20:45:08.625Z,99189.40
2018-11-06T20:48:11.501Z,99193.00
2018-11-06T20:51:14.444Z,99194.47
2018-11-06T20:54:17.685Z,99196.26
2018-11-06T20:57:20.823Z,99188.48
2018-11-06T21:00:30.670Z,99189.50
2018-11-06T21:03:33.648Z,99186.59
2018-11-06T21:06:36.597Z,99183.55
2018-11-06T21:09:39.625Z,99182.75
2018-11-06T21:12:42.964Z,99192.36
2018-11-06T21:15:46.177Z,99194.55
2018-11-06T21:18:49.180Z,99193.71
2018-11-06T21:21:52.124Z,99201.47
2018-11-06T21:24:55.222Z,99196.48
2018-11-06T21:27:58.109Z,99195.42
2018-11-06T21:31:01.044Z,99194.91
2018-11-06T21:34:04.561Z,99195.63
2018-11-06T21:37:07.494Z,99205.11
2018-11-06T21:40:13.293Z,99206.23
2018-11-06T21:43:16.317Z,99209.81
2018-11-06T21:46:19.429Z,99225.12
2018-11-06T21:49:22.548Z,99218.08
2018-11-06T21:52:25.524Z,99217.51
2018-11-06T21:55:28.501Z,99218.74
2018-11-06T21:58:31.621Z,99222.00
2018-11-06T22:01:34.805Z,99220.48
2018-11-06T22:04:37.784Z,99217.63
2018-11-06T22:07:41.105Z,99219.30
2018-11-06T22:10:44.005Z,99218.16
2018-11-06T22:13:47.074Z,99217.24
2018-11-06T22:16:49.948Z,99220.11
2018-11-06T22:19:52.846Z,99222.92
2018-11-06T22:22:56.723Z,99232.76
2018-11-06T22:25:59.891Z,99230.21
2018-11-06T22:29:02.876Z,99224.23
2018-11-06T22:32:05.841Z,99222.50
2018-11-06T22:35:10.238Z,99220.92
2018-11-06T22:38:13.303Z,99234.17
2018-11-06T22:41:16.266Z,99231.22
2018-11-06T22:44:19.165Z,99233.06
2018-11-06T22:47:22.162Z,99223.47
2018-11-06T22:50:25.070Z,99221.80
2018-11-06T22:53:27.926Z,99227.97
2018-11-06T22:56:30.870Z,99235.41
2018-11-06T22:59:33.880Z,99235.66
2018-11-06T23:02:36.874Z,99241.32
2018-11-06T23:05:40.051Z,99236.10
2018-11-06T23:08:42.947Z,99238.95
2018-11-06T23:11:45.833Z,99238.56
2018-11-06T23:14:48.717Z,99238.31
2018-11-06T23:17:51.610Z,99231.33
2018-11-06T23:20:54.650Z,99231.73
2018-11-06T23:23:57.552Z,99229.55
2018-11-06T23:27:00.473Z,99224.86
2018-11-06T23:30:04.989Z,99227.19
2018-11-06T23:33:07.989Z,99213.84
2018-11-06T23:36:10.865Z,99219.70
2018-11-06T23:39:13.752Z,99210.02
2018-11-06T23:42:16.697Z,99199.66
2018-11-06T23:45:19.610Z,99201.13
2018-11-06T23:48:22.533Z,99208.28
2018-11-06T23:51:25.434Z,99205.89
2018-11-06T23:54:28.400Z,99207.82
2018-11-06T23:57:31.301Z,99217.51
